^^
Station Historical Data
Daily Summary for March 8, 2017 Units:  English    Metric   Both
« Previous Day
Next Day »
Daily Weekly Monthly Yearly Custom
  High: Low: Average:
Temperature: 60.5 °F 44.3 °F 53.4 °F
Dew Point: 51.6 °F 23.0 °F 34.8 °F
Humidity: 87 % 26 % 53 %
Wind Speed: 18.7 mph 0.0 mph 7.8 mph
Wind Gust: 31.1 mph - -
Wind:- - WSW
Pressure: 30.08 in 29.88 in -
Precipitation: 0.02 in    
Historical Graphs
 
 
Tabular Data for March 8, 2017
Time Temperature Dew Point Pressure Wind Wind Speed Wind Gust Humidity Rainfall Rate (Hourly) solar Conditions
00:00 55.1 °F 51.3 °F 29.97 in Calm     87 % 0.00 in 0.0 W/m2 CLR
00:05 55.2 °F 51.4 °F 29.97 in South 2.8 mph 3.5 mph 87 % 0.00 in 0.0 W/m2 RA
00:10 55.5 °F 51.4 °F 29.97 in South 2.3 mph 4.0 mph 86 % 0.00 in 0.0 W/m2 RA
00:15 55.6 °F 51.5 °F 29.96 in SSW 5.8 mph 8.1 mph 86 % 0.00 in 0.0 W/m2 CLR
00:20 55.8 °F 51.4 °F 29.96 in SSW 5.0 mph 10.4 mph 85 % 0.00 in 0.0 W/m2 CLR
00:25 56.0 °F 51.6 °F 29.96 in South 2.8 mph 4.6 mph 85 % 0.00 in 0.0 W/m2 CLR
00:30 56.1 °F 51.3 °F 29.95 in SSW 3.6 mph 6.9 mph 84 % 0.00 in 0.0 W/m2 CLR
00:35 56.1 °F 51.3 °F 29.95 in South 5.0 mph 7.0 mph 84 % 0.00 in 0.0 W/m2 CLR
00:40 56.2 °F 51.1 °F 29.95 in South 7.0 mph 13.0 mph 83 % 0.00 in 0.0 W/m2 CLR
00:45 56.5 °F 51.4 °F 29.95 in South 6.8 mph 6.8 mph 83 % 0.00 in 0.0 W/m2 CLR
00:50 56.5 °F 51.1 °F 29.95 in South 2.9 mph 6.0 mph 82 % 0.00 in 0.0 W/m2 CLR
00:55 56.4 °F 51.0 °F 29.95 in South 2.0 mph 6.0 mph 82 % 0.00 in 0.0 W/m2 CLR
01:00 56.4 °F 51.0 °F 29.94 in South 1.1 mph 3.5 mph 82 % 0.00 in 0.0 W/m2 CLR
01:05 56.3 °F 50.9 °F 29.94 in South 0.8 mph 3.5 mph 82 % 0.00 in 0.0 W/m2 CLR
01:10 55.9 °F 50.5 °F 29.94 in Calm     82 % 0.00 in 0.0 W/m2 CLR
01:15 56.0 °F 50.9 °F 29.94 in South 0.9 mph 3.5 mph 83 % 0.00 in 0.0 W/m2 CLR
01:20 55.8 °F 50.4 °F 29.94 in Calm     82 % 0.00 in 0.0 W/m2 CLR
01:25 55.9 °F 50.8 °F 29.94 in Calm     83 % 0.00 in 0.0 W/m2 CLR
01:30 55.5 °F 50.4 °F 29.94 in Calm     83 % 0.00 in 0.0 W/m2 CLR
01:35 55.5 °F 50.4 °F 29.93 in Calm     83 % 0.00 in 0.0 W/m2 CLR
01:40 55.5 °F 50.4 °F 29.92 in Calm     83 % 0.00 in 0.0 W/m2 CLR
01:45 55.9 °F 50.8 °F 29.92 in SW 2.2 mph 3.5 mph 83 % 0.00 in 0.0 W/m2 CLR
01:50 56.0 °F 50.6 °F 29.92 in Calm   1.2 mph 82 % 0.00 in 0.0 W/m2 CLR
01:55 56.3 °F 50.9 °F 29.92 in SSW 3.5 mph 5.8 mph 82 % 0.00 in 0.0 W/m2 CLR
02:00 56.5 °F 50.7 °F 29.91 in SW 2.3 mph 4.6 mph 81 % 0.00 in 0.0 W/m2 CLR
02:05 56.8 °F 50.7 °F 29.91 in SSW 4.3 mph 5.8 mph 80 % 0.00 in 0.0 W/m2 CLR
02:10 57.0 °F 50.9 °F 29.91 in South 8.9 mph 16.1 mph 80 % 0.00 in 0.0 W/m2 CLR
02:15 57.1 °F 50.6 °F 29.91 in SSW 4.7 mph 8.0 mph 79 % 0.00 in 0.0 W/m2 CLR
02:20 57.2 °F 50.7 °F 29.91 in SSW 4.1 mph 9.0 mph 79 % 0.00 in 0.0 W/m2 CLR
02:25 57.3 °F 50.5 °F 29.90 in WSW 7.3 mph 12.7 mph 78 % 0.00 in 0.0 W/m2 CLR
02:30 57.3 °F 50.8 °F 29.90 in SSW 10.0 mph 13.8 mph 79 % 0.00 in 0.0 W/m2 CLR
02:35 57.5 °F 50.7 °F 29.89 in SW 6.4 mph 10.0 mph 78 % 0.00 in 0.0 W/m2 CLR
02:40 57.6 °F 50.8 °F 29.89 in South 7.2 mph 10.4 mph 78 % 0.00 in 0.0 W/m2 CLR
02:45 57.6 °F 50.8 °F 29.89 in SSW 7.0 mph 12.7 mph 78 % 0.01 in 0.0 W/m2 RA
02:50 57.4 °F 50.6 °F 29.88 in SW 10.6 mph 16.1 mph 78 % 0.01 in 0.0 W/m2 RA
02:55 57.4 °F 50.6 °F 29.88 in SW 8.7 mph 12.7 mph 78 % 0.01 in 0.0 W/m2
03:00 57.4 °F 50.6 °F 29.88 in SW 4.7 mph 9.2 mph 78 % 0.01 in 0.0 W/m2 CLR
03:05 57.4 °F 50.6 °F 29.88 in SW 1.9 mph 8.1 mph 78 % 0.01 in 0.0 W/m2 CLR
03:10 57.5 °F 50.7 °F 29.88 in SSW 8.7 mph 15.0 mph 78 % 0.01 in 0.0 W/m2 CLR
03:15 57.5 °F 50.7 °F 29.88 in SW 7.1 mph 13.0 mph 78 % 0.01 in 0.0 W/m2 CLR
03:20 57.5 °F 50.7 °F 29.88 in SSW 10.7 mph 19.6 mph 78 % 0.01 in 0.0 W/m2 CLR
03:25 57.7 °F 50.5 °F 29.88 in SW 8.6 mph 13.8 mph 77 % 0.01 in 0.0 W/m2 CLR
03:30 57.6 °F 50.4 °F 29.88 in SSW 6.2 mph 10.4 mph 77 % 0.01 in 0.0 W/m2 CLR
03:35 57.5 °F 50.3 °F 29.88 in SSW 8.4 mph 11.5 mph 77 % 0.01 in 0.0 W/m2 CLR
03:41 57.5 °F 50.3 °F 29.89 in West 8.2 mph 11.5 mph 77 % 0.01 in 0.0 W/m2 CLR
03:46 57.6 °F 50.4 °F 29.89 in SSW 8.2 mph 12.7 mph 77 % 0.00 in 0.0 W/m2 CLR
03:51 57.6 °F 50.4 °F 29.89 in SW 8.4 mph 11.5 mph 77 % 0.00 in 0.0 W/m2 CLR
03:56 57.5 °F 50.3 °F 29.90 in WSW 6.8 mph 12.7 mph 77 % 0.00 in 0.0 W/m2 CLR
04:01 57.3 °F 50.5 °F 29.91 in WSW 8.2 mph 12.7 mph 78 % 0.00 in 0.0 W/m2 CLR
04:06 56.7 °F 49.6 °F 29.93 in West 16.6 mph 30.0 mph 77 % 0.00 in 0.0 W/m2 CLR
04:11 53.6 °F 45.9 °F 29.94 in West 15.5 mph 26.5 mph 75 % 0.00 in 0.0 W/m2 CLR
04:16 51.2 °F 44.2 °F 29.95 in West 12.7 mph 31.1 mph 77 % 0.01 in 0.0 W/m2 RA
04:21 50.1 °F 43.5 °F 29.96 in West 18.7 mph 26.5 mph 78 % 0.01 in 0.0 W/m2 RA
04:26 49.3 °F 43.1 °F 29.97 in WNW 10.0 mph 19.0 mph 79 % 0.01 in 0.0 W/m2
04:31 48.8 °F 42.9 °F 29.98 in WNW 13.2 mph 20.7 mph 80 % 0.01 in 0.0 W/m2 CLR
04:36 48.4 °F 42.5 °F 29.99 in WNW 11.1 mph 15.0 mph 80 % 0.01 in 0.0 W/m2 CLR
04:41 48.1 °F 42.2 °F 30.00 in NW 14.9 mph 19.6 mph 80 % 0.01 in 0.0 W/m2 CLR
04:46 47.9 °F 42.3 °F 30.00 in WNW 11.9 mph 18.0 mph 81 % 0.01 in 0.0 W/m2 CLR
04:51 47.7 °F 42.2 °F 30.01 in West 6.5 mph 11.5 mph 81 % 0.01 in 0.0 W/m2 CLR
04:56 47.4 °F 41.9 °F 30.02 in NW 4.7 mph 8.1 mph 81 % 0.01 in 0.0 W/m2 CLR
05:01 47.2 °F 42.0 °F 30.02 in NW 5.9 mph 11.5 mph 82 % 0.01 in 0.0 W/m2 CLR
05:06 47.0 °F 41.8 °F 30.02 in NW 2.8 mph 10.4 mph 82 % 0.01 in 0.0 W/m2 CLR
05:11 46.8 °F 41.6 °F 30.02 in NW 6.6 mph 13.8 mph 82 % 0.01 in 0.0 W/m2 CLR
05:16 46.6 °F 41.4 °F 30.03 in WNW 10.0 mph 13.0 mph 82 % 0.00 in 0.0 W/m2 CLR
05:21 46.5 °F 41.0 °F 30.04 in WNW 5.2 mph 11.5 mph 81 % 0.00 in 0.0 W/m2 CLR
05:26 46.3 °F 40.5 °F 30.03 in West 8.4 mph 13.0 mph 80 % 0.00 in 0.0 W/m2 CLR
05:31 46.1 °F 40.3 °F 30.03 in NW 5.6 mph 12.7 mph 80 % 0.00 in 0.0 W/m2 CLR
05:36 46.0 °F 39.9 °F 30.03 in West 4.2 mph 10.4 mph 79 % 0.00 in 0.0 W/m2 CLR
05:41 45.9 °F 39.8 °F 30.02 in WNW 4.8 mph 8.1 mph 79 % 0.00 in 0.0 W/m2 CLR
05:46 45.9 °F 39.4 °F 30.02 in WNW 3.5 mph 6.9 mph 78 % 0.00 in 0.0 W/m2 CLR
05:51 45.9 °F 39.4 °F 30.02 in WNW 2.4 mph 4.6 mph 78 % 0.00 in 0.0 W/m2 CLR
05:56 45.8 °F 39.3 °F 30.02 in WNW 2.9 mph 4.0 mph 78 % 0.00 in 0.0 W/m2 CLR
06:01 45.8 °F 39.3 °F 30.02 in WNW 3.8 mph 6.9 mph 78 % 0.00 in 0.0 W/m2 CLR
06:06 45.7 °F 39.2 °F 30.02 in WNW 2.7 mph 4.0 mph 78 % 0.00 in 0.0 W/m2 CLR
06:11 45.6 °F 39.5 °F 30.02 in West 5.0 mph 8.1 mph 79 % 0.00 in 0.0 W/m2 CLR
06:16 45.6 °F 39.5 °F 30.02 in WNW 5.5 mph 9.2 mph 79 % 0.00 in 0.0 W/m2 CLR
06:21 45.4 °F 39.3 °F 30.03 in WNW 6.6 mph 9.2 mph 79 % 0.00 in 0.0 W/m2 CLR
06:26 45.2 °F 39.1 °F 30.03 in WSW 9.6 mph 16.1 mph 79 % 0.00 in 0.0 W/m2 CLR
06:31 45.2 °F 38.7 °F 30.03 in WNW 7.2 mph 11.5 mph 78 % 0.00 in 0.0 W/m2 CLR
06:36 45.1 °F 38.6 °F 30.03 in West 9.9 mph 13.8 mph 78 % 0.00 in 0.0 W/m2 CLR
06:41 45.0 °F 38.2 °F 30.03 in West 9.5 mph 15.0 mph 77 % 0.00 in 5.0 W/m2 CLR
06:46 45.1 °F 38.6 °F 30.04 in WSW 8.3 mph 11.5 mph 78 % 0.00 in 9.0 W/m2 CLR
06:51 45.0 °F 38.6 °F 30.04 in NNW 8.7 mph 11.5 mph 78 % 0.00 in 14.0 W/m2 CLR
06:56 45.0 °F 38.6 °F 30.05 in West 11.8 mph 15.0 mph 78 % 0.00 in 14.0 W/m2 CLR
07:01 44.9 °F 38.5 °F 30.06 in WNW 10.8 mph 17.3 mph 78 % 0.00 in 18.0 W/m2 CLR
07:06 44.8 °F 38.4 °F 30.06 in WNW 9.5 mph 13.8 mph 78 % 0.00 in 26.0 W/m2 CLR
07:11 44.8 °F 38.7 °F 30.07 in WNW 3.8 mph 9.2 mph 79 % 0.00 in 28.0 W/m2 BKN
07:16 44.7 °F 38.6 °F 30.07 in West 12.2 mph 15.0 mph 79 % 0.00 in 37.0 W/m2 SCT
07:21 44.7 °F 38.6 °F 30.07 in West 4.2 mph 9.2 mph 79 % 0.00 in 42.0 W/m2 SCT
07:26 44.5 °F 38.7 °F 30.07 in West 5.3 mph 9.2 mph 80 % 0.00 in 58.0 W/m2 SCT
07:27 44.5 °F 38.7 °F 30.07 in WSW 6.9 mph 9.2 mph 80 % 0.00 in 69.0 W/m2 SCT
07:32 44.4 °F 38.9 °F 30.07 in West 7.8 mph 11.5 mph 81 % 0.00 in 46.0 W/m2 BKN
07:37 44.3 °F 38.8 °F 30.08 in SW 4.5 mph 10.4 mph 81 % 0.00 in 67.0 W/m2 SCT
07:42 44.3 °F 39.2 °F 30.08 in West 11.2 mph 12.7 mph 82 % 0.00 in 114.0 W/m2 CLR
07:46 44.4 °F 38.9 °F 30.08 in WSW 6.2 mph 13.8 mph 81 % 0.00 in 62.0 W/m2 BKN
07:51 44.5 °F 39.0 °F 30.08 in West 9.5 mph 13.8 mph 81 % 0.00 in 72.0 W/m2 BKN
07:56 44.5 °F 39.0 °F 30.08 in West 5.2 mph 12.7 mph 81 % 0.00 in 70.0 W/m2 BKN
08:02 44.5 °F 38.7 °F 30.08 in West 0.4 mph 8.1 mph 80 % 0.00 in 197.0 W/m2 SCT
08:07 44.5 °F 38.7 °F 30.08 in West 7.5 mph 10.0 mph 80 % 0.00 in 39.0 W/m2 OVC
08:11 44.4 °F 38.6 °F 30.08 in WNW 9.0 mph 11.5 mph 80 % 0.00 in 56.0 W/m2 OVC
08:17 44.3 °F 38.5 °F 30.08 in West 5.9 mph 8.1 mph 80 % 0.00 in 53.0 W/m2 BKN
08:22 44.4 °F 38.6 °F 30.08 in West 5.5 mph 9.2 mph 80 % 0.00 in 244.0 W/m2 CLR
08:27 45.0 °F 39.2 °F 30.08 in WNW 9.9 mph 12.7 mph 80 % 0.00 in 362.0 W/m2 CLR
08:32 45.6 °F 39.5 °F 30.08 in West 7.7 mph 10.4 mph 79 % 0.00 in 381.0 W/m2 CLR
08:37 46.0 °F 39.5 °F 30.08 in SW 9.6 mph 15.0 mph 78 % 0.00 in 438.0 W/m2 CLR
08:42 46.0 °F 38.9 °F 30.08 in West 10.4 mph 13.8 mph 76 % 0.00 in 439.0 W/m2 BKN
08:47 46.5 °F 39.3 °F 30.08 in West 10.8 mph 10.8 mph 76 % 0.00 in 443.0 W/m2 CLR
08:52 47.1 °F 39.9 °F 30.08 in West 11.4 mph 16.0 mph 76 % 0.00 in 483.0 W/m2 CLR
08:57 47.1 °F 38.9 °F 30.08 in West 14.5 mph 20.7 mph 73 % 0.00 in 482.0 W/m2 CLR
09:02 47.4 °F 39.2 °F 30.08 in West 7.7 mph 12.7 mph 73 % 0.00 in 332.0 W/m2 CLR
09:07 47.7 °F 39.1 °F 30.08 in WSW 10.0 mph 14.0 mph 72 % 0.00 in 584.0 W/m2 CLR
09:12 47.9 °F 38.9 °F 30.08 in WSW 9.8 mph 12.7 mph 71 % 0.00 in 608.0 W/m2 CLR
09:17 47.8 °F 38.5 °F 30.08 in WSW 11.6 mph 12.7 mph 70 % 0.00 in 109.0 W/m2 BKN
09:22 47.6 °F 37.9 °F 30.08 in WNW 12.4 mph 19.6 mph 69 % 0.00 in 72.0 W/m2 SCT
09:27 47.7 °F 37.7 °F 30.08 in West 8.2 mph 16.1 mph 68 % 0.00 in 594.0 W/m2 CLR
09:32 48.2 °F 38.1 °F 30.08 in West 9.6 mph 16.1 mph 68 % 0.00 in 656.0 W/m2 CLR
09:37 48.8 °F 39.1 °F 30.08 in West 8.6 mph 11.5 mph 69 % 0.00 in 598.0 W/m2 CLR
09:42 49.1 °F 38.6 °F 30.07 in NW 8.7 mph 16.1 mph 67 % 0.00 in 605.0 W/m2 CLR
09:47 49.6 °F 38.3 °F 30.08 in West 11.0 mph 16.1 mph 65 % 0.00 in 621.0 W/m2 CLR
09:52 49.7 °F 38.4 °F 30.07 in West 7.2 mph 11.5 mph 65 % 0.00 in 633.0 W/m2 CLR
09:57 49.9 °F 38.6 °F 30.08 in WSW 9.6 mph 13.8 mph 65 % 0.00 in 635.0 W/m2 CLR
10:02 49.9 °F 37.4 °F 30.07 in West 12.4 mph 15.0 mph 62 % 0.00 in 650.0 W/m2 CLR
10:07 50.2 °F 36.8 °F 30.07 in WSW 9.1 mph 15.0 mph 60 % 0.00 in 659.0 W/m2 CLR
10:12 50.6 °F 36.4 °F 30.07 in West 9.4 mph 18.4 mph 58 % 0.00 in 673.0 W/m2 CLR
10:17 50.8 °F 34.3 °F 30.07 in WNW 9.8 mph 18.4 mph 53 % 0.00 in 682.0 W/m2 CLR
10:22 51.4 °F 34.3 °F 30.07 in West 5.4 mph 11.0 mph 52 % 0.00 in 693.0 W/m2 CLR
10:27 51.6 °F 33.0 °F 30.07 in WSW 12.3 mph 19.6 mph 49 % 0.00 in 700.0 W/m2 CLR
10:32 51.7 °F 33.1 °F 30.07 in WNW 12.5 mph 19.6 mph 49 % 0.00 in 708.0 W/m2 CLR
10:37 51.8 °F 32.7 °F 30.06 in West 10.7 mph 13.8 mph 48 % 0.00 in 719.0 W/m2 CLR
10:42 52.2 °F 33.1 °F 30.06 in West 9.6 mph 15.0 mph 48 % 0.00 in 724.0 W/m2 CLR
10:47 52.3 °F 33.2 °F 30.06 in WSW 8.5 mph 15.0 mph 48 % 0.00 in 728.0 W/m2 CLR
10:52 52.4 °F 33.8 °F 30.07 in WSW 8.4 mph 15.0 mph 49 % 0.00 in 737.0 W/m2 CLR
10:57 52.5 °F 32.8 °F 30.06 in WNW 12.0 mph 17.3 mph 47 % 0.00 in 744.0 W/m2 CLR
11:02 52.9 °F 33.7 °F 30.06 in WSW 9.2 mph 15.0 mph 48 % 0.00 in 747.0 W/m2 CLR
11:07 53.3 °F 32.5 °F 30.06 in West 11.8 mph 18.4 mph 45 % 0.00 in 758.0 W/m2 CLR
11:12 53.6 °F 32.8 °F 30.06 in West 12.1 mph 18.0 mph 45 % 0.00 in 773.0 W/m2 CLR
11:17 53.7 °F 31.7 °F 30.06 in WSW 9.3 mph 19.6 mph 43 % 0.00 in 766.0 W/m2 CLR
11:22 53.9 °F 31.9 °F 30.06 in WNW 8.0 mph 16.1 mph 43 % 0.00 in 749.0 W/m2 CLR
11:27 54.4 °F 31.8 °F 30.05 in NW 12.2 mph 15.0 mph 42 % 0.00 in 773.0 W/m2 CLR
11:32 54.8 °F 32.1 °F 30.05 in WSW 4.6 mph 10.4 mph 42 % 0.00 in 777.0 W/m2 CLR
11:37 55.1 °F 31.8 °F 30.04 in SW 12.9 mph 19.6 mph 41 % 0.00 in 782.0 W/m2 CLR
11:42 54.7 °F 30.8 °F 30.04 in WSW 8.3 mph 13.0 mph 40 % 0.00 in 784.0 W/m2 CLR
11:47 54.9 °F 29.7 °F 30.04 in SW 11.1 mph 25.3 mph 38 % 0.00 in 786.0 W/m2 CLR
11:52 55.0 °F 31.1 °F 30.04 in SW 8.4 mph 11.5 mph 40 % 0.00 in 789.0 W/m2 CLR
11:57 55.0 °F 31.1 °F 30.03 in WSW 8.5 mph 21.9 mph 40 % 0.00 in 809.0 W/m2 CLR
12:02 55.1 °F 31.8 °F 30.04 in SW 7.4 mph 12.7 mph 41 % 0.00 in 796.0 W/m2 CLR
12:07 55.4 °F 32.7 °F 30.03 in SSW 7.5 mph 12.7 mph 42 % 0.00 in 810.0 W/m2 CLR
12:12 55.5 °F 32.2 °F 30.03 in West 9.8 mph 11.5 mph 41 % 0.00 in 791.0 W/m2 CLR
12:17 55.4 °F 31.5 °F 30.02 in WSW 13.0 mph 13.0 mph 40 % 0.00 in 784.0 W/m2 CLR
12:22 55.0 °F 31.7 °F 30.02 in SW 10.3 mph 13.8 mph 41 % 0.00 in 782.0 W/m2 CLR
12:27 55.6 °F 32.8 °F 30.01 in SW 12.9 mph 16.0 mph 42 % 0.00 in 782.0 W/m2 CLR
12:32 55.6 °F 32.2 °F 30.01 in SW 10.6 mph 16.1 mph 41 % 0.00 in 784.0 W/m2 CLR
12:37 55.7 °F 31.7 °F 30.01 in WSW 6.2 mph 12.7 mph 40 % 0.00 in 831.0 W/m2 CLR
12:42 56.1 °F 32.7 °F 30.01 in WSW 11.6 mph 12.0 mph 41 % 0.00 in 775.0 W/m2 CLR
12:47 56.2 °F 32.2 °F 30.00 in West 6.9 mph 16.1 mph 40 % 0.00 in 779.0 W/m2 CLR
12:52 56.8 °F 32.7 °F 30.00 in WSW 8.3 mph 16.1 mph 40 % 0.00 in 830.0 W/m2 CLR
12:57 56.8 °F 32.1 °F 30.00 in SW 10.9 mph 13.8 mph 39 % 0.00 in 288.0 W/m2 FEW
13:02 56.5 °F 31.8 °F 30.00 in SW 9.8 mph 18.4 mph 39 % 0.00 in 830.0 W/m2 CLR
13:07 56.9 °F 32.8 °F 29.99 in WSW 8.9 mph 11.5 mph 40 % 0.00 in 821.0 W/m2 CLR
13:12 57.5 °F 32.7 °F 29.99 in SW 10.4 mph 17.0 mph 39 % 0.00 in 752.0 W/m2 CLR
13:17 57.3 °F 31.2 °F 29.99 in SW 10.2 mph 15.0 mph 37 % 0.00 in 821.0 W/m2 CLR
13:22 57.1 °F 31.0 °F 29.98 in SW 10.4 mph 11.5 mph 37 % 0.00 in 316.0 W/m2 FEW
13:27 57.3 °F 30.5 °F 29.97 in WSW 12.6 mph 14.0 mph 36 % 0.00 in 816.0 W/m2 CLR
13:32 57.3 °F 30.5 °F 29.97 in SW 9.9 mph 11.5 mph 36 % 0.00 in 807.0 W/m2 CLR
13:37 57.6 °F 30.8 °F 29.97 in WSW 13.3 mph 19.6 mph 36 % 0.00 in 791.0 W/m2 CLR
13:42 57.4 °F 30.6 °F 29.96 in SW 6.0 mph 10.4 mph 36 % 0.00 in 721.0 W/m2 CLR
13:47 57.5 °F 30.0 °F 29.96 in SW 9.0 mph 15.0 mph 35 % 0.00 in 780.0 W/m2 CLR
13:53 57.2 °F 29.8 °F 29.96 in WSW 9.3 mph 16.1 mph 35 % 0.00 in 703.0 W/m2 CLR
13:58 57.5 °F 30.0 °F 29.96 in WSW 11.2 mph 15.0 mph 35 % 0.00 in 671.0 W/m2 CLR
14:03 57.6 °F 30.1 °F 29.96 in WSW 7.3 mph 21.9 mph 35 % 0.00 in 373.0 W/m2 CLR
14:08 57.7 °F 28.8 °F 29.96 in SSW 16.6 mph 19.6 mph 33 % 0.00 in 698.0 W/m2 CLR
14:13 57.8 °F 28.9 °F 29.96 in WSW 11.4 mph 19.6 mph 33 % 0.00 in 686.0 W/m2 CLR
14:18 57.7 °F 28.8 °F 29.95 in WSW 12.9 mph 14.0 mph 33 % 0.00 in 643.0 W/m2 CLR
14:23 57.8 °F 29.6 °F 29.95 in WSW 11.3 mph 13.0 mph 34 % 0.00 in 707.0 W/m2 CLR
14:28 58.1 °F 29.1 °F 29.95 in WSW 10.4 mph 23.0 mph 33 % 0.00 in 624.0 W/m2 CLR
14:33 58.1 °F 29.8 °F 29.94 in West 9.3 mph 17.3 mph 34 % 0.00 in 151.0 W/m2 BKN
14:38 58.2 °F 29.2 °F 29.94 in WNW 13.8 mph 18.4 mph 33 % 0.00 in 591.0 W/m2 CLR
14:43 58.4 °F 28.6 °F 29.94 in SW 9.8 mph 12.7 mph 32 % 0.00 in 582.0 W/m2 CLR
14:48 58.5 °F 28.7 °F 29.94 in West 9.9 mph 15.0 mph 32 % 0.00 in 585.0 W/m2 CLR
14:53 58.5 °F 28.7 °F 29.93 in WSW 9.8 mph 17.3 mph 32 % 0.00 in 555.0 W/m2 CLR
14:58 58.5 °F 28.7 °F 29.93 in WSW 7.6 mph 15.0 mph 32 % 0.00 in 216.0 W/m2 CLR
15:03 58.5 °F 29.5 °F 29.93 in SW 11.2 mph 13.0 mph 33 % 0.00 in 589.0 W/m2 CLR
15:08 58.8 °F 29.7 °F 29.93 in WSW 11.4 mph 13.8 mph 33 % 0.00 in 554.0 W/m2 CLR
15:13 59.1 °F 29.2 °F 29.93 in WSW 12.9 mph 16.1 mph 32 % 0.00 in 538.0 W/m2 OVC
15:18 59.1 °F 29.2 °F 29.93 in WSW 9.3 mph 17.3 mph 32 % 0.00 in 519.0 W/m2 CLR
15:23 58.8 °F 28.2 °F 29.92 in WSW 10.9 mph 19.0 mph 31 % 0.00 in 97.0 W/m2 OVC
15:28 58.9 °F 29.1 °F 29.93 in West 4.4 mph 7.0 mph 32 % 0.00 in 464.0 W/m2 CLR
15:33 59.4 °F 28.7 °F 29.92 in SW 7.9 mph 13.8 mph 31 % 0.00 in 443.0 W/m2 CLR
15:38 59.8 °F 29.9 °F 29.92 in West 7.4 mph 12.0 mph 32 % 0.00 in 413.0 W/m2 CLR
15:43 60.2 °F 27.8 °F 29.92 in WSW 16.9 mph 21.9 mph 29 % 0.00 in 399.0 W/m2 CLR
15:48 60.4 °F 27.1 °F 29.91 in West 14.4 mph 22.0 mph 28 % 0.00 in 380.0 W/m2 CLR
15:53 60.5 °F 26.3 °F 29.91 in SW 13.3 mph 24.2 mph 27 % 0.00 in 366.0 W/m2 CLR
15:58 60.4 °F 25.3 °F 29.91 in WSW 16.5 mph 23.0 mph 26 % 0.00 in 350.0 W/m2 CLR
16:05 60.3 °F 26.1 °F 29.91 in SW 16.0 mph 29.0 mph 27 % 0.00 in 323.0 W/m2 RA
16:10 60.1 °F 26.0 °F 29.91 in WSW 12.3 mph 22.0 mph 27 % 0.00 in 309.0 W/m2 RA
16:15 60.2 °F 26.1 °F 29.91 in WSW 16.0 mph 24.2 mph 27 % 0.00 in 292.0 W/m2 CLR
16:16 60.2 °F 26.1 °F 29.91 in West 13.5 mph 31.1 mph 27 % 0.00 in 287.0 W/m2 CLR
16:21 60.2 °F 26.1 °F 29.91 in WSW 6.6 mph 16.1 mph 27 % 0.00 in 265.0 W/m2 CLR
16:26 60.3 °F 26.1 °F 29.90 in West 15.6 mph 20.7 mph 27 % 0.00 in 248.0 W/m2 CLR
16:31 60.2 °F 26.9 °F 29.91 in SSW 13.1 mph 21.9 mph 28 % 0.00 in 225.0 W/m2 CLR
16:36 60.1 °F 26.0 °F 29.91 in SSW 15.3 mph 21.9 mph 27 % 0.00 in 204.0 W/m2 CLR
16:41 60.0 °F 26.8 °F 29.91 in SW 9.6 mph 19.6 mph 28 % 0.00 in 186.0 W/m2 CLR
16:46 59.9 °F 26.7 °F 29.91 in SSW 11.8 mph 16.1 mph 28 % 0.00 in 163.0 W/m2 CLR
16:51 59.8 °F 25.7 °F 29.91 in WNW 12.4 mph 18.4 mph 27 % 0.00 in 142.0 W/m2 CLR
16:56 59.7 °F 26.5 °F 29.91 in SW 9.2 mph 15.0 mph 28 % 0.00 in 121.0 W/m2 CLR
17:01 59.6 °F 26.4 °F 29.91 in SW 11.3 mph 20.7 mph 28 % 0.00 in 105.0 W/m2 FEW
17:06 59.4 °F 26.2 °F 29.90 in SW 4.5 mph 13.8 mph 28 % 0.00 in 88.0 W/m2 FEW
17:11 59.3 °F 26.2 °F 29.91 in SW 11.9 mph 23.0 mph 28 % 0.00 in 70.0 W/m2 FEW
17:16 59.0 °F 26.8 °F 29.90 in WSW 5.2 mph 6.9 mph 29 % 0.00 in 54.0 W/m2 SCT
17:21 58.9 °F 26.7 °F 29.90 in WSW 11.5 mph 19.6 mph 29 % 0.00 in 42.0 W/m2 SCT
17:26 58.7 °F 27.3 °F 29.90 in SSW 4.8 mph 14.0 mph 30 % 0.00 in 28.0 W/m2 BKN
17:31 58.5 °F 26.3 °F 29.90 in SW 9.5 mph 17.3 mph 29 % 0.00 in 23.0 W/m2 BKN
17:36 58.2 °F 26.9 °F 29.90 in SW 4.3 mph 19.6 mph 30 % 0.00 in 19.0 W/m2 BKN
17:41 58.0 °F 26.7 °F 29.90 in SW 8.2 mph 17.3 mph 30 % 0.00 in 16.0 W/m2 BKN
17:46 57.8 °F 26.5 °F 29.90 in West 7.8 mph 12.7 mph 30 % 0.00 in 12.0 W/m2 SCT
17:51 57.6 °F 27.2 °F 29.90 in WSW 6.8 mph 11.5 mph 31 % 0.00 in 11.0 W/m2 FEW
17:56 57.3 °F 26.9 °F 29.90 in SSW 3.5 mph 11.5 mph 31 % 0.00 in 7.0 W/m2 CLR
18:01 57.1 °F 27.5 °F 29.89 in WSW 10.3 mph 16.1 mph 32 % 0.00 in 5.0 W/m2 CLR
18:06 56.8 °F 27.2 °F 29.90 in WSW 4.4 mph 9.2 mph 32 % 0.00 in 0.0 W/m2 CLR
18:11 56.5 °F 27.7 °F 29.90 in WSW 7.5 mph 11.5 mph 33 % 0.00 in 0.0 W/m2 CLR
18:16 56.2 °F 27.4 °F 29.90 in WSW 6.5 mph 10.4 mph 33 % 0.00 in 0.0 W/m2 CLR
18:21 56.0 °F 27.3 °F 29.90 in SSW 6.7 mph 9.2 mph 33 % 0.00 in 0.0 W/m2 CLR
18:26 55.9 °F 27.2 °F 29.90 in WSW 7.3 mph 12.7 mph 33 % 0.00 in 0.0 W/m2 CLR
18:31 55.7 °F 27.7 °F 29.91 in SW 6.5 mph 9.2 mph 34 % 0.00 in 0.0 W/m2 CLR
18:36 55.5 °F 27.6 °F 29.91 in WSW 4.1 mph 6.9 mph 34 % 0.00 in 0.0 W/m2 CLR
18:41 55.2 °F 28.0 °F 29.91 in SW 3.0 mph 3.5 mph 35 % 0.00 in 0.0 W/m2 CLR
18:46 54.9 °F 27.7 °F 29.91 in WSW 3.5 mph 5.8 mph 35 % 0.00 in 0.0 W/m2 CLR
18:51 54.5 °F 28.1 °F 29.91 in West 1.5 mph 3.5 mph 36 % 0.00 in 0.0 W/m2 CLR
18:56 54.2 °F 27.8 °F 29.91 in WSW 2.2 mph 4.6 mph 36 % 0.00 in 0.0 W/m2 CLR
19:01 54.0 °F 27.6 °F 29.92 in SW 4.5 mph 8.1 mph 36 % 0.00 in 0.0 W/m2 CLR
19:06 54.0 °F 27.6 °F 29.92 in WSW 6.9 mph 10.0 mph 36 % 0.00 in 0.0 W/m2 CLR
19:11 54.1 °F 27.7 °F 29.91 in West 4.0 mph 5.8 mph 36 % 0.00 in 0.0 W/m2 CLR
19:16 53.9 °F 27.5 °F 29.91 in West 3.0 mph 6.9 mph 36 % 0.00 in 0.0 W/m2 CLR
19:21 53.7 °F 27.4 °F 29.91 in WSW 6.4 mph 8.1 mph 36 % 0.00 in 0.0 W/m2 CLR
19:26 53.5 °F 27.2 °F 29.91 in SW 4.8 mph 10.4 mph 36 % 0.00 in 0.0 W/m2 CLR
19:27 53.5 °F 27.2 °F 29.92 in SW 4.1 mph 6.9 mph 36 % 0.00 in 0.0 W/m2 CLR
19:32 53.6 °F 27.3 °F 29.92 in WSW 4.6 mph 9.2 mph 36 % 0.00 in 0.0 W/m2 CLR
19:37 53.4 °F 27.8 °F 29.92 in WSW 2.1 mph 5.8 mph 37 % 0.00 in 0.0 W/m2 CLR
19:42 53.2 °F 27.6 °F 29.92 in SSW 3.1 mph 5.8 mph 37 % 0.00 in 0.0 W/m2 CLR
19:47 53.0 °F 27.4 °F 29.92 in WSW 2.6 mph 6.9 mph 37 % 0.00 in 0.0 W/m2 CLR
19:52 53.0 °F 27.4 °F 29.92 in SW 5.3 mph 10.4 mph 37 % 0.00 in 0.0 W/m2 CLR
19:57 53.0 °F 27.4 °F 29.92 in West 6.8 mph 9.2 mph 37 % 0.00 in 0.0 W/m2 CLR
20:02 53.0 °F 27.4 °F 29.93 in WSW 4.2 mph 8.1 mph 37 % 0.00 in 0.0 W/m2 CLR
20:07 52.7 °F 27.1 °F 29.93 in West 4.2 mph 7.0 mph 37 % 0.00 in 0.0 W/m2 CLR
20:12 52.7 °F 27.1 °F 29.93 in WSW 6.5 mph 13.8 mph 37 % 0.00 in 0.0 W/m2 CLR
20:17 53.0 °F 26.0 °F 29.93 in West 4.8 mph 11.5 mph 35 % 0.00 in 0.0 W/m2 CLR
20:22 53.2 °F 26.2 °F 29.94 in WSW 7.8 mph 15.0 mph 35 % 0.00 in 0.0 W/m2 CLR
20:27 53.3 °F 25.6 °F 29.93 in West 5.4 mph 13.0 mph 34 % 0.00 in 0.0 W/m2 CLR
20:32 53.4 °F 25.0 °F 29.93 in WSW 6.4 mph 12.7 mph 33 % 0.00 in 0.0 W/m2 CLR
20:33 53.5 °F 25.1 °F 29.93 in SW 6.0 mph 12.7 mph 33 % 0.00 in 0.0 W/m2 CLR
20:38 53.5 °F 25.1 °F 29.94 in West 7.2 mph 11.0 mph 33 % 0.00 in 0.0 W/m2 CLR
20:43 53.4 °F 25.0 °F 29.94 in WSW 6.5 mph 11.5 mph 33 % 0.00 in 0.0 W/m2 CLR
20:48 53.3 °F 24.9 °F 29.94 in WSW 5.6 mph 11.5 mph 33 % 0.00 in 0.0 W/m2 CLR
20:53 53.2 °F 24.8 °F 29.94 in SW 4.3 mph 11.5 mph 33 % 0.00 in 0.0 W/m2 CLR
20:58 53.1 °F 24.7 °F 29.94 in WSW 4.9 mph 10.0 mph 33 % 0.00 in 0.0 W/m2 CLR
21:03 53.0 °F 24.6 °F 29.94 in SSW 9.5 mph 12.7 mph 33 % 0.00 in 0.0 W/m2 CLR
21:08 53.0 °F 24.6 °F 29.94 in SW 9.2 mph 15.0 mph 33 % 0.00 in 0.0 W/m2 CLR
21:13 53.3 °F 24.2 °F 29.94 in West 10.3 mph 24.2 mph 32 % 0.00 in 0.0 W/m2 CLR
21:18 53.6 °F 23.7 °F 29.94 in WSW 8.7 mph 12.0 mph 31 % 0.00 in 0.0 W/m2 CLR
21:23 53.8 °F 23.1 °F 29.95 in WSW 13.2 mph 17.3 mph 30 % 0.00 in 0.0 W/m2 CLR
21:28 53.8 °F 23.1 °F 29.95 in WSW 7.3 mph 16.1 mph 30 % 0.00 in 0.0 W/m2 CLR
21:33 53.6 °F 23.7 °F 29.95 in SW 6.1 mph 12.0 mph 31 % 0.00 in 0.0 W/m2 CLR
21:38 53.3 °F 23.4 °F 29.95 in SSW 8.8 mph 10.4 mph 31 % 0.00 in 0.0 W/m2 CLR
21:43 53.0 °F 23.9 °F 29.95 in WSW 1.5 mph 6.9 mph 32 % 0.00 in 0.0 W/m2 CLR
21:48 52.7 °F 23.6 °F 29.95 in West 6.9 mph 9.2 mph 32 % 0.00 in 0.0 W/m2 CLR
21:53 52.8 °F 23.0 °F 29.96 in WSW 9.2 mph 11.0 mph 31 % 0.00 in 0.0 W/m2 CLR
21:58 52.8 °F 23.7 °F 29.96 in WSW 5.5 mph 8.1 mph 32 % 0.00 in 0.0 W/m2 CLR
22:03 52.5 °F 23.5 °F 29.95 in SW 5.7 mph 10.4 mph 32 % 0.00 in 0.0 W/m2 CLR
22:08 52.4 °F 23.4 °F 29.95 in SW 6.3 mph 10.4 mph 32 % 0.00 in 0.0 W/m2 CLR
22:13 52.5 °F 23.5 °F 29.95 in SW 5.6 mph 7.0 mph 32 % 0.00 in 0.0 W/m2 CLR
22:18 52.3 °F 23.3 °F 29.96 in WSW 5.1 mph 10.4 mph 32 % 0.00 in 0.0 W/m2 CLR
22:23 52.1 °F 23.8 °F 29.96 in SW 6.1 mph 9.2 mph 33 % 0.00 in 0.0 W/m2 CLR
22:28 52.1 °F 23.8 °F 29.95 in WSW 8.4 mph 11.0 mph 33 % 0.00 in 0.0 W/m2 CLR
22:33 52.1 °F 23.8 °F 29.96 in SW 5.2 mph 11.5 mph 33 % 0.00 in 0.0 W/m2 CLR
22:38 52.1 °F 23.8 °F 29.96 in West 5.3 mph 18.4 mph 33 % 0.00 in 0.0 W/m2 CLR
22:43 52.0 °F 23.8 °F 29.96 in WSW 8.1 mph 10.4 mph 33 % 0.00 in 0.0 W/m2 CLR
22:48 51.9 °F 24.4 °F 29.96 in West 3.7 mph 9.2 mph 34 % 0.00 in 0.0 W/m2 CLR
22:53 51.8 °F 23.6 °F 29.96 in SSW 11.0 mph 12.7 mph 33 % 0.00 in 0.0 W/m2 CLR
22:58 51.9 °F 23.7 °F 29.96 in WSW 8.6 mph 14.0 mph 33 % 0.00 in 0.0 W/m2 CLR
23:03 51.9 °F 24.4 °F 29.96 in West 5.8 mph 11.0 mph 34 % 0.00 in 0.0 W/m2 CLR
23:08 52.0 °F 23.8 °F 29.96 in WSW 9.0 mph 11.5 mph 33 % 0.00 in 0.0 W/m2 CLR
23:13 52.0 °F 23.8 °F 29.96 in WSW 4.8 mph 9.2 mph 33 % 0.00 in 0.0 W/m2 CLR
23:18 51.8 °F 24.3 °F 29.96 in SW 8.0 mph 12.7 mph 34 % 0.00 in 0.0 W/m2 CLR
23:23 51.7 °F 24.2 °F 29.96 in SW 11.2 mph 17.3 mph 34 % 0.00 in 0.0 W/m2 CLR
23:28 51.9 °F 23.7 °F 29.96 in WSW 9.8 mph 15.0 mph 33 % 0.00 in 0.0 W/m2 CLR
23:33 52.0 °F 23.8 °F 29.96 in WSW 9.2 mph 19.6 mph 33 % 0.00 in 0.0 W/m2 CLR
23:38 51.8 °F 24.3 °F 29.97 in SW 7.2 mph 11.5 mph 34 % 0.00 in 0.0 W/m2 CLR
23:43 51.5 °F 24.0 °F 29.97 in WSW 6.9 mph 10.4 mph 34 % 0.00 in 0.0 W/m2 CLR
23:48 51.0 °F 24.3 °F 29.97 in WSW 6.0 mph 9.2 mph 35 % 0.00 in 0.0 W/m2 CLR
23:53 50.7 °F 24.7 °F 29.97 in SW 7.4 mph 10.0 mph 36 % 0.00 in 0.0 W/m2 CLR
23:58 50.4 °F 24.4 °F 29.97 in West 4.3 mph 7.0 mph 36 % 0.00 in 0.0 W/m2 CLR
Air Products Campus Weather
Compliments of Weather Underground - 3.5 mb